Am tiefen Moor, Germany

9:07 AM CET on December 14, 2017 (GMT +0100)
Entenschnabel | | Change Station

Elev 154 ft 52.48 °N, 10.16 °E | Updated 19 minutes ago

Overcast
Overcast
38.3 °F
Feels Like 38 °F
N
2.5
Wind Variable Wind from SW
Gusts 7.5 mph

Today
High -- | Low -- °F
--% Chance of Precip.
Yesterday
High -- | Low -- °F
Precip. -- in
Pressure 29.18 in
Visibility 6.2 miles
Clouds Scattered Clouds 1600 ft
Mostly Cloudy 6000 ft
Windchill 38 °F
Dew Point 34 °F
Humidity 84%
Rainfall 0.04 in
Snow Depth Not available.
8:22 AM 4:05 PM
Waning Crescent, 14% visible
METAR EDDV 140750Z 24013KT 220V280 9999 -RA SCT016 BKN060 04/01 Q0988 TEMPO RASN BKN014
Pressure 29.18 in
Visibility 6.2 miles
Clouds Scattered Clouds 1600 ft
Mostly Cloudy 6000 ft
Windchill 38 °F
Dew Point 34 °F
Humidity 84%
Rainfall 0.04 in
Snow Depth Not available.
8:22 AM 4:05 PM
Waning Crescent, 14% visible
METAR EDDV 140750Z 24013KT 220V280 9999 -RA SCT016 BKN060 04/01 Q0988 TEMPO RASN BKN014

Get Severe Weather Alerts

Thanks for signing up!

Be on the lookout for a verification email in your inbox.

You'll start receiving the daily forecast at 6 AM.

×

10-Day Weather Forecast

×

Almanac

Astronomy

Dec. 14, 2017 Rise Set
Actual Time
Civil Twilight
Nautical Twilight
Astronomical Twilight
Moon
Length of Visible Light
Length of Day
Tomorrow will be .
, % of the Moon is Illuminated

Today's Extremes

Country Highs Country Lows

Community

WunderPhotos

Category 6

Welcome to Category 6. This is the collective home for Weather Underground's featured writeups by Dr. Jeff Masters (right), Bob Henson (left), Chris Burt, and other regular contributors.

Nearby

Air Quality

  Air Quality AQ Index Pollutant
Not available.

Snow Depth

Station Depth Elevation

Earthquake Activity

City Distance Mag. Time & Date
Minimum magnitude displayed is 2.5.

Coastal Water Temperatures

Place Temperature

Stations

Nearby Weather Stations

Station Location Temp. Windchill Dew Point Humidity Wind Precip. Elev Updated Type